Offerle, KS (67563)

8:23 PM CDT on September 02, 2014 (GMT -0500)
Backyard Weather | Change Station
CLOSE
Current Station
Personal Weather Station
Location: Kinsley, KS
Elevation: 2168 ft
Nearby Weather Stations

Elev 2168 ft 37.93 °N, 99.41 °W | Updated 1 second ago

Partly Cloudy
Partly Cloudy
79.2 °F
Feels Like 82 °F
N
1.0
Wind Variable Wind from SSE
Gusts 1.0 mph

Today
High -- | Low -- °F
--% Chance of Precip.
Yesterday
High -- | Low -- °F
Precip. -- in
7:08 AM 8:05 PM
First Quarter, 57% visible
Pressure 29.85 in
Visibility 10.0 miles
Clouds Few 4700 ft
Heat Index 82 °F
Dew Point 69 °F
Humidity 70%
Rainfall 0.01 in
Snow Depth Not available.
UV 0 out of 12
Pollen 10.00 out of 12
Air Quality Not available.
Flu Activity Not available.
METAR KDDC 030052Z AUTO 14009KT 10SM FEW047 26/19 A2993 RMK AO2 SLP106 T02610194

More Conditions Fewer Conditions

Pressure 29.85 in
Visibility 10.0 miles
Clouds Few 4700 ft
Heat Index 82 °F
Dew Point 69 °F
Humidity 70%
Rainfall 0.01 in
Snow Depth Not available.
UV 0 out of 12
Pollen 10.00 out of 12
Air Quality Not available.
Flu Activity Not available.
METAR KDDC 030052Z AUTO 14009KT 10SM FEW047 26/19 A2993 RMK AO2 SLP106 T02610194

More Conditions Fewer Conditions

10-Day Weather Forecast

Almanac

Astronomy

Sep. 02, 2014 Rise Set
Actual Time 7:08 AM CDT 8:05 PM CDT
Civil Twilight 6:42 AM CDT 8:32 PM CDT
Nautical Twilight 6:10 AM CDT 9:04 PM CDT
Astronomical Twilight 5:37 AM CDT 9:37 PM CDT
Moon 2:47 PM CDT (9/2) 12:16 AM CDT (9/2)
Length of Visible Light 13h 50m
Length of Day
12h 56m
Tomorrow will be 2m 21s shorter.
First Quarter, 57% of the Moon is Illuminated
Today
First Quarter
Sep 8
Full
Sep 15
Last Quarter
Sep 24
New
Oct 1
First Quarter

Today's Extremes

State Highs State Lows

Community

WunderPhotos

Upload Photos

1,749,826 photos uploaded!

Nearby

Snow Depth

Station Depth Elevation
No new snow has been reported.

Earthquake Activity

City Distance Mag. Time & Date
Helena, Oklahoma 114 miles 3.2 3:05 AM CDT
2014-09-02
Medford, Oklahoma 118 miles 3.3 11:58 PM CDT
2014-09-01
Enid, Oklahoma 122 miles 3.4 11:57 AM CDT
2014-08-31
Enid, Oklahoma 122 miles 3.7 2:20 AM CDT
2014-08-31
Minimum magnitude displayed is 2.5.

Coastal Water Temperatures

Place Temperature
No Stations Reporting

Nearby Weather Stations